Weather at Robert S Kerr Airport

Public forecast

Using degrees Fahrenheit for public forecast. Weather courtesy of forecast.io.

Current aviation weather report (METAR) for Robert S Kerr Airport

Retrieved 2022/05/22 22:35 UTC (5 minutes ago):

KRKR 222235Z AUTO 03005KT 10SM SCT018 OVC032 15/11 A3024 RMK AO2

Closest aviation forecast (TAF) to Robert S Kerr Airport

Closest forecast is Fort Smith Regional Airport, 22.6 nm (41.9 km) NNE. Retrieved 2022/05/22 18:30 UTC (4 hours ago):

TAF KFSM 221727Z 2218/2318 06013KT P6SM OVC040 FM230200 09005KT P6SM OVC040